Falfurrias, TX

12:20 AM CDT on August 20, 2017 (GMT -0500)
Falfurrias

Weather History for KBKS - October, 2012

Change the Weather History Date:

Wednesday, October 17, 2012

  Actual Average (KNQI) Record (KNQI)
Temperature  
Mean Temperature 84 °F -  
Max Temperature 99 °F 81 °F 100 °F (2012)
Min Temperature 70 °F 62 °F 45 °F (2001)
Cooling Degree Days 20    
Growing Degree Days 34 (Base 50)    
Moisture  
Dew Point 62 °F    
Average Humidity 54    
Maximum Humidity 85    
Minimum Humidity 19    
Precipitation  
Precipitation 0.00 in - - ()
Sea Level Pressure  
Sea Level Pressure 29.70 in    
Wind  
Wind Speed 7 mph (South)    
Max Wind Speed 13 mph    
Max Gust Speed 23 mph    
Visibility 10 miles    
Events      
Averages and records for this station are not official NWS values.
T = Trace of Precipitation, MM = Missing Value Source: NWS Daily Summary

Daily Weather History Graph

Daily Weather History Graph

Search for Another Location

Airport or City:

Trip Planner

Search our weather history database for the weather conditions in past years. The results will help you decide how hot, cold, wet, or windy it might be!

Date:

Astronomy

Oct. 17, 2012 Rise Set
Actual Time 7:33 AM CDT 7:01 PM CDT
Civil Twilight 7:10 AM CDT 7:24 PM CDT
Nautical Twilight 6:42 AM CDT 7:51 PM CDT
Astronomical Twilight 6:15 AM CDT 8:18 PM CDT
Moon 9:53 AM CDT (10/17) 8:55 PM CDT (10/17)
Length of Visible Light 12h 14m
Length of Day
11h 27m
Waxing Crescent, 7% of the Moon is Illuminated
Oct 17
Waxing Crescent
Oct 21
First Quarter
Oct 29
Full
Nov 6
Last Quarter
Nov 13
New

Hourly Weather History & Observations

Time (CDT) Temp. Heat Index Dew Point Humidity Pressure Visibility Wind Dir Wind Speed Gust Speed Precip Events Conditions
12:35 AM 77.0 °F - 66.7 °F 70% 29.75 in 10.0 mi SSE 10.4 mph - N/A   Clear
12:55 AM 77.0 °F - 67.1 °F 71% 29.75 in 10.0 mi South 12.7 mph - N/A   Clear
1:15 AM 76.8 °F - 67.1 °F 72% 29.75 in 10.0 mi SSE 11.5 mph 18.4 mph N/A   Clear
1:35 AM 76.5 °F - 67.1 °F 73% 29.75 in 10.0 mi SSE 9.2 mph - N/A   Clear
1:55 AM 76.3 °F - 66.7 °F 72% 29.74 in 10.0 mi SSE 10.4 mph - N/A   Clear
2:15 AM 76.3 °F - 66.7 °F 72% 29.74 in 10.0 mi SSE 6.9 mph - N/A   Clear
2:55 AM 75.7 °F - 66.6 °F 73% 29.76 in 10.0 mi SSE 6.9 mph - N/A   Clear
3:15 AM 75.4 °F - 66.6 °F 74% 29.75 in 10.0 mi SSE 5.8 mph - N/A   Clear
3:35 AM 75.2 °F - 66.4 °F 74% 29.75 in 10.0 mi SSE 4.6 mph - N/A   Clear
3:55 AM 75.2 °F - 66.4 °F 74% 29.74 in 10.0 mi SE 5.8 mph - N/A   Clear
4:15 AM 74.8 °F - 66.4 °F 75% 29.73 in 10.0 mi SE 5.8 mph - N/A   Clear
4:35 AM 74.8 °F - 66.4 °F 75% 29.73 in 10.0 mi SE 5.8 mph - N/A   Clear
4:55 AM 74.5 °F - 66.4 °F 76% 29.74 in 10.0 mi ESE 3.5 mph - N/A   Scattered Clouds
5:15 AM 74.3 °F - 66.4 °F 76% 29.73 in 10.0 mi ESE 4.6 mph - N/A   Clear
5:35 AM 74.3 °F - 66.6 °F 77% 29.73 in 10.0 mi ESE 4.6 mph - N/A   Clear
5:55 AM 73.9 °F - 66.4 °F 77% 29.73 in 10.0 mi ESE 3.5 mph - N/A   Clear
6:15 AM 73.6 °F - 66.6 °F 79% 29.73 in 10.0 mi ESE 3.5 mph - N/A   Clear
6:35 AM 72.5 °F - 66.4 °F 81% 29.74 in 10.0 mi Calm Calm - N/A   Clear
6:55 AM 72.0 °F - 66.4 °F 83% 29.74 in 10.0 mi SE 3.5 mph - N/A   Clear
7:15 AM 71.8 °F - 66.2 °F 83% 29.75 in 10.0 mi Calm Calm - N/A   Clear
7:35 AM 70.9 °F - 66.2 °F 85% 29.75 in 10.0 mi SE 3.5 mph - N/A   Clear
7:55 AM 71.2 °F - 66.2 °F 84% 29.75 in 10.0 mi ESE 3.5 mph - N/A   Clear
8:15 AM 71.6 °F - 66.4 °F 84% 29.76 in 10.0 mi SE 3.5 mph - N/A   Clear
8:35 AM 73.4 °F - 66.9 °F 80% 29.76 in 10.0 mi SSE 5.8 mph - N/A   Clear
8:55 AM 74.7 °F - 67.5 °F 78% 29.76 in 10.0 mi SSE 6.9 mph - N/A   Clear
9:15 AM 75.6 °F - 67.8 °F 77% 29.76 in 10.0 mi South 10.4 mph - N/A   Clear
9:35 AM 77.5 °F - 68.0 °F 72% 29.76 in 10.0 mi South 12.7 mph - N/A   Clear
9:55 AM 79.5 °F - 67.5 °F 66% 29.76 in 10.0 mi South 12.7 mph - N/A   Clear
10:15 AM 80.8 °F 83.2 °F 66.9 °F 63% 29.77 in 10.0 mi South 11.5 mph - N/A   Clear
10:35 AM 82.0 °F 84.3 °F 66.4 °F 59% 29.76 in 10.0 mi South 10.4 mph - N/A   Clear
10:55 AM 82.2 °F 84.4 °F 66.2 °F 58% 29.76 in 10.0 mi South 9.2 mph - N/A   Clear
11:15 AM 84.2 °F 86.3 °F 65.7 °F 54% 29.76 in 10.0 mi SSE 8.1 mph - N/A   Clear
11:35 AM 85.5 °F 87.1 °F 64.8 °F 50% 29.75 in 10.0 mi South 11.5 mph - N/A   Clear
11:55 AM 87.4 °F 88.5 °F 63.5 °F 45% 29.75 in 10.0 mi SSW 10.4 mph 16.1 mph N/A   Clear
12:15 PM 88.2 °F 88.7 °F 62.6 °F 42% 29.74 in 10.0 mi South 9.2 mph - N/A   Clear
12:35 PM 88.7 °F 89.1 °F 61.9 °F 41% 29.73 in 10.0 mi SSW 8.1 mph - N/A   Clear
12:55 PM 90.3 °F 90.2 °F 60.6 °F 37% 29.72 in 10.0 mi SSW 11.5 mph 16.1 mph N/A   Clear
1:15 PM 91.9 °F 91.5 °F 59.7 °F 34% 29.70 in 10.0 mi SW 10.4 mph 19.6 mph N/A   Clear
1:55 PM 92.7 °F 91.8 °F 59.0 °F 32% 29.68 in 10.0 mi SW 5.8 mph 9.2 mph N/A   Clear
2:15 PM 94.6 °F 93.5 °F 57.7 °F 29% 29.67 in 10.0 mi WSW 12.7 mph 18.4 mph N/A   Clear
2:35 PM 94.6 °F 93.2 °F 57.2 °F 28% 29.66 in 10.0 mi SW 9.2 mph 17.3 mph N/A   Clear
2:55 PM 95.2 °F 93.9 °F 57.0 °F 28% 29.64 in 10.0 mi WSW 6.9 mph 18.4 mph N/A   Clear
3:15 PM 96.3 °F 95.1 °F 56.8 °F 27% 29.63 in 10.0 mi SSW 10.4 mph - N/A   Clear
3:35 PM 96.4 °F 95.0 °F 55.9 °F 26% 29.62 in 10.0 mi West 6.9 mph - N/A   Clear
4:15 PM 98.4 °F 96.2 °F 53.8 °F 22% 29.61 in 10.0 mi NNW 4.6 mph - N/A   Scattered Clouds
4:35 PM 99.0 °F - 50.7 °F 20% 29.61 in 10.0 mi WNW 10.4 mph 17.3 mph N/A   Scattered Clouds
4:55 PM 99.0 °F - 49.6 °F 19% 29.61 in 10.0 mi WNW 10.4 mph 23.0 mph N/A   Clear
5:15 PM 98.8 °F - 52.2 °F 21% 29.61 in 10.0 mi West 9.2 mph - N/A   Clear
5:35 PM 99.3 °F - 52.7 °F 21% 29.60 in 10.0 mi West 10.4 mph - N/A   Clear
5:55 PM 97.0 °F - 52.0 °F 22% 29.60 in 10.0 mi WNW 5.8 mph - N/A   Clear
6:15 PM 96.1 °F - 52.2 °F 23% 29.60 in 10.0 mi WNW 5.8 mph - N/A   Clear
6:35 PM 95.2 °F - 52.7 °F 24% 29.61 in 10.0 mi WNW 4.6 mph - N/A   Clear
6:55 PM 94.1 °F 91.9 °F 54.5 °F 26% 29.62 in 10.0 mi Calm Calm - N/A   Clear
7:15 PM 92.3 °F 90.2 °F 55.2 °F 28% 29.62 in 10.0 mi Calm Calm - N/A   Clear
7:35 PM 89.2 °F 87.5 °F 56.1 °F 32% 29.62 in 10.0 mi Calm Calm - N/A   Scattered Clouds
7:55 PM 87.4 °F 86.1 °F 57.0 °F 35% 29.63 in 10.0 mi Calm Calm - N/A   Scattered Clouds
8:15 PM 85.1 °F 84.4 °F 58.3 °F 40% 29.64 in 10.0 mi Calm Calm - N/A   Clear
8:35 PM 84.7 °F 84.0 °F 58.1 °F 40% 29.65 in 10.0 mi Calm Calm - N/A   Clear
8:55 PM 84.4 °F 83.8 °F 58.5 °F 41% 29.66 in 10.0 mi SE 5.8 mph - N/A   Scattered Clouds
9:15 PM 84.7 °F 84.4 °F 59.4 °F 42% 29.67 in 10.0 mi SE 4.6 mph - N/A   Scattered Clouds
9:35 PM 84.2 °F 84.4 °F 60.4 °F 45% 29.68 in 10.0 mi SE 4.6 mph - N/A   Scattered Clouds
9:55 PM 84.4 °F 84.6 °F 60.8 °F 45% 29.68 in 10.0 mi SSE 5.8 mph - N/A   Scattered Clouds
10:15 PM 84.4 °F 84.8 °F 61.7 °F 46% 29.69 in 10.0 mi SSE 8.1 mph - N/A   Clear
10:35 PM 83.3 °F 84.4 °F 63.5 °F 51% 29.69 in 10.0 mi SSE 6.9 mph - N/A   Clear
10:55 PM 82.6 °F 84.3 °F 64.8 °F 55% 29.69 in 10.0 mi SSE 6.9 mph - N/A   Scattered Clouds
11:15 PM 81.5 °F 83.7 °F 66.2 °F 60% 29.70 in 10.0 mi ESE 4.6 mph - N/A   Scattered Clouds
11:35 PM 80.8 °F 82.9 °F 66.4 °F 61% 29.70 in 10.0 mi Calm Calm - N/A   Scattered Clouds
11:55 PM 80.1 °F 82.3 °F 67.1 °F 64% 29.71 in 10.0 mi Calm Calm - N/A   Scattered Clouds